createdAt,value
2023-03-01T00:01:13.566Z,2.67
2023-03-01T00:03:40.397Z,3.07
2023-03-01T00:06:07.288Z,2.83
2023-03-01T00:08:34.358Z,3.17
2023-03-01T00:11:02.202Z,2.87
2023-03-01T00:13:28.638Z,3.23
2023-03-01T00:15:55.129Z,2.27
2023-03-01T00:18:21.552Z,3.23
2023-03-01T00:20:54.751Z,2.40
2023-03-01T00:23:21.359Z,2.17
2023-03-01T00:25:47.834Z,2.33
2023-03-01T00:28:14.217Z,2.30
2023-03-01T00:30:40.621Z,5.50
2023-03-01T00:33:07.027Z,2.70
2023-03-01T00:35:33.870Z,4.03
2023-03-01T00:38:00.650Z,3.03
2023-03-01T00:40:29.998Z,2.77
2023-03-01T00:42:56.422Z,2.50
2023-03-01T00:45:22.810Z,2.87
2023-03-01T00:47:49.878Z,2.80
2023-03-01T00:50:16.697Z,2.00
2023-03-01T00:52:45.676Z,2.63
2023-03-01T00:55:12.427Z,2.93
2023-03-01T00:57:38.960Z,2.53
2023-03-01T01:00:08.599Z,2.40
2023-03-01T01:02:36.765Z,2.53
2023-03-01T01:05:03.360Z,1.97
2023-03-01T01:07:29.884Z,3.17
2023-03-01T01:09:56.257Z,2.57
2023-03-01T01:12:22.583Z,2.53
2023-03-01T01:14:49.048Z,2.90
2023-03-01T01:17:15.434Z,2.07
2023-03-01T01:19:41.746Z,3.63
2023-03-01T01:22:08.193Z,2.47
2023-03-01T01:24:34.582Z,2.70
2023-03-01T01:27:01.004Z,2.97
2023-03-01T01:29:27.490Z,2.37
2023-03-01T01:31:55.086Z,2.33
2023-03-01T01:34:22.527Z,2.30
2023-03-01T01:36:54.515Z,2.47
2023-03-01T01:39:21.302Z,2.23
2023-03-01T01:41:48.075Z,3.20
2023-03-01T01:44:22.026Z,2.43
2023-03-01T01:46:57.284Z,2.50
2023-03-01T01:49:26.930Z,2.50
2023-03-01T01:51:58.858Z,2.53
2023-03-01T01:54:28.705Z,2.03
2023-03-01T01:57:01.329Z,2.23
2023-03-01T01:59:28.497Z,2.50
2023-03-01T02:01:55.217Z,4.53
2023-03-01T02:04:22.566Z,3.10
2023-03-01T02:07:09.360Z,2.53
2023-03-01T02:09:36.568Z,2.30
2023-03-01T02:12:03.726Z,3.50
2023-03-01T02:14:30.155Z,2.60
2023-03-01T02:16:56.610Z,2.73
2023-03-01T02:19:38.178Z,2.33
2023-03-01T02:22:12.200Z,2.93
2023-03-01T02:24:50.831Z,3.23
2023-03-01T02:27:18.174Z,2.00
2023-03-01T02:29:45.004Z,3.33
2023-03-01T02:32:12.280Z,3.20
2023-03-01T02:34:39.726Z,2.13
2023-03-01T02:37:09.414Z,3.30
2023-03-01T02:39:45.333Z,2.23
2023-03-01T02:42:13.290Z,2.53
2023-03-01T02:44:39.741Z,2.67
2023-03-01T02:47:07.106Z,2.87
2023-03-01T02:49:35.606Z,2.17
2023-03-01T02:52:14.762Z,2.90
2023-03-01T02:54:48.152Z,3.20
2023-03-01T02:57:14.780Z,2.47
2023-03-01T02:59:43.549Z,2.40
2023-03-01T03:02:39.316Z,2.70
2023-03-01T03:05:09.231Z,2.58
2023-03-01T03:07:40.414Z,2.20
2023-03-01T03:10:08.501Z,2.80
2023-03-01T03:12:35.030Z,3.63
2023-03-01T03:15:01.438Z,3.10
2023-03-01T03:17:27.835Z,3.03
2023-03-01T03:19:54.310Z,2.37
2023-03-01T03:22:20.936Z,2.87
2023-03-01T03:24:47.318Z,3.07
2023-03-01T03:27:13.707Z,1.87
2023-03-01T03:29:40.147Z,3.27
2023-03-01T03:32:06.608Z,3.13
2023-03-01T03:34:33.345Z,3.13
2023-03-01T03:37:00.430Z,3.57
2023-03-01T03:39:35.775Z,4.60
2023-03-01T03:42:02.509Z,2.73
2023-03-01T03:44:28.820Z,2.67
2023-03-01T03:46:55.170Z,3.63
2023-03-01T03:49:21.644Z,2.37
2023-03-01T03:51:48.067Z,1.80
2023-03-01T03:54:14.469Z,2.93
2023-03-01T03:56:41.103Z,2.23
2023-03-01T03:59:07.647Z,2.60
2023-03-01T04:01:34.203Z,2.97
2023-03-01T04:04:05.068Z,4.00
2023-03-01T04:06:32.047Z,3.60
2023-03-01T04:09:01.153Z,2.33
2023-03-01T04:11:27.681Z,3.53
2023-03-01T04:13:55.158Z,3.87
2023-03-01T04:16:21.641Z,3.07
2023-03-01T04:18:48.526Z,2.20
2023-03-01T04:21:15.111Z,3.37
2023-03-01T04:23:41.969Z,3.27
2023-03-01T04:26:08.583Z,2.83
2023-03-01T04:28:39.982Z,3.30
2023-03-01T04:31:18.403Z,3.37
2023-03-01T04:33:55.485Z,2.80
2023-03-01T04:36:23.660Z,3.37
2023-03-01T04:38:50.332Z,2.73
2023-03-01T04:41:17.805Z,2.47
2023-03-01T04:43:44.608Z,4.67
2023-03-01T04:46:15.962Z,2.43
2023-03-01T04:48:42.994Z,3.13
2023-03-01T04:51:09.575Z,3.00
2023-03-01T04:53:39.378Z,3.67
2023-03-01T04:56:06.014Z,3.60
2023-03-01T04:58:32.638Z,3.03
2023-03-01T05:00:59.218Z,3.17
2023-03-01T05:03:25.884Z,3.17
2023-03-01T05:05:53.424Z,2.67
2023-03-01T05:08:21.669Z,2.87
2023-03-01T05:10:51.860Z,2.50
2023-03-01T05:13:22.044Z,2.70
2023-03-01T05:15:56.134Z,2.77
2023-03-01T05:18:26.880Z,2.20
2023-03-01T05:20:59.498Z,2.57
2023-03-01T05:23:26.305Z,2.53
2023-03-01T05:25:53.430Z,2.17
2023-03-01T05:28:20.444Z,2.57
2023-03-01T05:30:47.372Z,2.50
2023-03-01T05:33:16.500Z,3.23
2023-03-01T05:35:43.713Z,3.27
2023-03-01T05:38:10.497Z,2.40
2023-03-01T05:40:36.956Z,2.03
2023-03-01T05:43:06.183Z,2.67
2023-03-01T05:45:35.709Z,2.33
2023-03-01T05:48:02.073Z,2.53
2023-03-01T05:50:29.872Z,2.63
2023-03-01T05:53:09.263Z,3.10
2023-03-01T05:55:36.398Z,3.00
2023-03-01T05:58:04.048Z,2.73
2023-03-01T06:00:31.315Z,2.73
2023-03-01T06:02:58.378Z,2.43
2023-03-01T06:05:25.784Z,2.53
2023-03-01T06:07:52.461Z,2.43
2023-03-01T06:10:20.634Z,2.77
2023-03-01T06:12:48.070Z,3.77
2023-03-01T06:15:15.633Z,3.50
2023-03-01T06:17:43.010Z,3.70
2023-03-01T06:20:23.125Z,4.73
2023-03-01T06:22:52.943Z,3.33
2023-03-01T06:25:20.644Z,3.20
2023-03-01T06:27:47.389Z,3.43
2023-03-01T06:30:15.020Z,4.20
2023-03-01T06:32:43.060Z,2.90
2023-03-01T06:35:13.074Z,4.47
2023-03-01T06:37:39.707Z,2.43
2023-03-01T06:40:10.003Z,3.17
2023-03-01T06:42:36.667Z,4.30
2023-03-01T06:45:03.654Z,3.13
2023-03-01T06:47:30.040Z,3.20
2023-03-01T06:49:56.462Z,3.83
2023-03-01T06:52:23.141Z,2.87
2023-03-01T06:54:49.495Z,3.87
2023-03-01T06:57:15.797Z,3.03
2023-03-01T06:59:42.387Z,4.10
2023-03-01T07:02:11.003Z,3.80
2023-03-01T07:04:37.423Z,4.80
2023-03-01T07:07:03.745Z,3.13
2023-03-01T07:09:30.078Z,4.50
2023-03-01T07:11:56.966Z,5.47
2023-03-01T07:14:25.458Z,3.27
2023-03-01T07:16:52.182Z,3.97
2023-03-01T07:19:19.450Z,3.20
2023-03-01T07:21:45.800Z,4.10
2023-03-01T07:24:12.305Z,4.03
2023-03-01T07:26:38.869Z,3.47
2023-03-01T07:29:07.840Z,3.97
2023-03-01T07:31:35.960Z,3.50
2023-03-01T07:34:02.404Z,3.03
2023-03-01T07:36:29.006Z,3.47
2023-03-01T07:38:56.756Z,3.40
2023-03-01T07:41:23.198Z,2.13
2023-03-01T07:43:49.612Z,3.90
2023-03-01T07:46:15.990Z,3.30
2023-03-01T07:48:42.379Z,2.70
2023-03-01T07:51:08.930Z,3.43
2023-03-01T07:53:35.636Z,3.30
2023-03-01T07:56:20.591Z,3.93
2023-03-01T07:58:47.771Z,3.45
2023-03-01T08:01:16.670Z,3.10
2023-03-01T08:03:45.489Z,3.73
2023-03-01T08:06:12.547Z,3.40
2023-03-01T08:08:38.976Z,4.37
2023-03-01T08:11:06.412Z,3.73
2023-03-01T08:13:32.878Z,3.43
2023-03-01T08:16:10.741Z,3.40
2023-03-01T08:18:37.090Z,4.23
2023-03-01T08:21:07.047Z,3.27
2023-03-01T08:23:33.750Z,3.70
2023-03-01T08:26:07.015Z,3.13
2023-03-01T08:28:33.643Z,2.97
2023-03-01T08:31:00.020Z,3.07
2023-03-01T08:33:26.443Z,4.07
2023-03-01T08:35:52.809Z,3.17
2023-03-01T08:38:19.181Z,3.73
2023-03-01T08:40:45.483Z,4.13
2023-03-01T08:43:11.828Z,4.40
2023-03-01T08:45:38.192Z,3.50
2023-03-01T08:48:04.590Z,3.43
2023-03-01T08:50:30.900Z,4.13
2023-03-01T08:52:57.208Z,4.37
2023-03-01T08:55:23.552Z,4.27
2023-03-01T08:57:49.858Z,4.13
2023-03-01T09:00:16.346Z,3.57
2023-03-01T09:02:42.792Z,5.60
2023-03-01T09:05:09.392Z,4.10
2023-03-01T09:07:35.708Z,3.47
2023-03-01T09:10:02.092Z,3.70
2023-03-01T09:12:28.475Z,3.87
2023-03-01T09:14:54.782Z,6.03
2023-03-01T09:17:22.482Z,5.30
2023-03-01T09:19:49.403Z,5.00
2023-03-01T09:22:15.800Z,6.13
2023-03-01T09:24:42.179Z,4.50
2023-03-01T09:27:09.746Z,4.30
2023-03-01T09:29:36.967Z,5.07
2023-03-01T09:32:03.392Z,4.27
2023-03-01T09:34:29.711Z,4.30
2023-03-01T09:36:58.110Z,4.43
2023-03-01T09:39:24.809Z,5.53
2023-03-01T09:41:51.177Z,4.40
2023-03-01T09:44:32.117Z,4.67
2023-03-01T09:46:59.193Z,4.87
2023-03-01T09:49:26.883Z,4.67
2023-03-01T09:52:13.695Z,4.63
2023-03-01T09:54:40.090Z,4.63
2023-03-01T09:57:20.463Z,5.17
2023-03-01T10:00:07.050Z,3.67
2023-03-01T10:02:33.354Z,5.20
2023-03-01T10:05:19.920Z,5.90
2023-03-01T10:07:55.651Z,4.43
2023-03-01T10:10:28.782Z,4.60
2023-03-01T10:12:56.034Z,4.63
2023-03-01T10:15:36.250Z,4.43
2023-03-01T10:18:10.763Z,4.77
2023-03-01T10:21:00.318Z,3.55
2023-03-01T10:23:28.995Z,3.00
2023-03-01T10:26:07.505Z,4.57
2023-03-01T10:28:33.859Z,3.37
2023-03-01T10:31:00.455Z,4.00
2023-03-01T10:33:28.685Z,3.50
2023-03-01T10:35:55.314Z,4.57
2023-03-01T10:38:21.720Z,4.50
2023-03-01T10:40:53.825Z,4.70
2023-03-01T10:43:20.465Z,4.60
2023-03-01T10:45:47.310Z,4.37
2023-03-01T10:48:16.536Z,5.60
2023-03-01T10:50:44.620Z,4.20
2023-03-01T10:53:26.110Z,5.33
2023-03-01T10:56:09.442Z,4.10
2023-03-01T10:58:36.792Z,3.67
2023-03-01T11:01:23.438Z,3.80
2023-03-01T11:04:08.089Z,7.00
2023-03-01T11:06:35.267Z,4.43
2023-03-01T11:09:18.953Z,4.47
2023-03-01T11:11:45.435Z,4.90
2023-03-01T11:14:26.800Z,4.83
2023-03-01T11:17:04.823Z,3.43
2023-03-01T11:19:31.586Z,3.47
2023-03-01T11:22:06.595Z,4.73
2023-03-01T11:24:35.966Z,5.40
2023-03-01T11:27:03.809Z,3.87
2023-03-01T11:29:47.930Z,4.63
2023-03-01T11:32:16.249Z,5.40
2023-03-01T11:35:06.235Z,4.47
2023-03-01T11:37:35.569Z,4.47
2023-03-01T11:40:05.990Z,4.53
2023-03-01T11:42:42.124Z,4.47
2023-03-01T11:45:10.992Z,3.73
2023-03-01T11:47:56.256Z,4.50
2023-03-01T11:50:36.609Z,4.85
2023-03-01T11:53:06.377Z,4.90
2023-03-01T11:55:35.542Z,4.27
2023-03-01T11:58:01.835Z,4.73
2023-03-01T12:00:31.044Z,4.03
2023-03-01T12:03:05.738Z,5.13
2023-03-01T12:05:44.525Z,5.75
2023-03-01T12:08:10.843Z,4.43
2023-03-01T12:10:57.808Z,3.93
2023-03-01T12:13:28.458Z,5.07
2023-03-01T12:15:54.850Z,5.37
2023-03-01T12:18:36.709Z,4.80
2023-03-01T12:21:14.955Z,5.27
2023-03-01T12:23:50.244Z,4.70
2023-03-01T12:26:34.365Z,4.40
2023-03-01T12:29:09.709Z,5.57
2023-03-01T12:31:38.891Z,4.03
2023-03-01T12:34:20.325Z,5.97
2023-03-01T12:37:05.192Z,4.50
2023-03-01T12:39:50.990Z,5.13
2023-03-01T12:42:27.230Z,4.30
2023-03-01T12:45:13.528Z,3.17
2023-03-01T12:48:05.846Z,4.20
2023-03-01T12:50:40.507Z,6.17
2023-03-01T12:53:11.991Z,4.13
2023-03-01T12:55:43.929Z,4.13
2023-03-01T12:58:25.597Z,3.57
2023-03-01T13:01:15.224Z,5.00
2023-03-01T13:03:47.665Z,4.37
2023-03-01T13:06:20.598Z,5.30
2023-03-01T13:08:50.734Z,5.37
2023-03-01T13:11:19.802Z,4.37
2023-03-01T13:13:47.494Z,4.30
2023-03-01T13:16:29.517Z,5.03
2023-03-01T13:19:16.622Z,4.23
2023-03-01T13:21:44.189Z,4.30
2023-03-01T13:24:29.102Z,4.67
2023-03-01T13:27:07.529Z,4.65
2023-03-01T13:29:47.592Z,4.53
2023-03-01T13:32:43.176Z,5.33
2023-03-01T13:35:16.625Z,4.67
2023-03-01T13:37:43.497Z,4.53
2023-03-01T13:40:24.332Z,6.13
2023-03-01T13:43:04.260Z,3.50
2023-03-01T13:45:31.468Z,4.53
2023-03-01T13:48:03.542Z,5.77
2023-03-01T13:50:33.896Z,4.30
2023-03-01T13:53:01.335Z,4.53
2023-03-01T13:55:37.387Z,6.20
2023-03-01T13:58:05.843Z,5.33
2023-03-01T14:00:36.794Z,4.00
2023-03-01T14:03:09.898Z,4.30
2023-03-01T14:05:37.159Z,4.57
2023-03-01T14:08:18.330Z,3.93
2023-03-01T14:11:03.292Z,4.83
2023-03-01T14:13:39.603Z,3.90
2023-03-01T14:16:13.621Z,4.13
2023-03-01T14:18:45.084Z,4.93
2023-03-01T14:21:15.894Z,3.37
2023-03-01T14:23:43.089Z,3.57
2023-03-01T14:26:10.021Z,4.07
2023-03-01T14:28:39.819Z,4.40
2023-03-01T14:31:26.281Z,4.40
2023-03-01T14:33:56.819Z,4.13
2023-03-01T14:36:31.236Z,4.87
2023-03-01T14:39:05.599Z,5.50
2023-03-01T14:41:35.097Z,3.87
2023-03-01T14:44:06.141Z,4.80
2023-03-01T14:46:34.683Z,3.87
2023-03-01T14:49:18.618Z,10.73
2023-03-01T14:52:03.042Z,4.87
2023-03-01T14:54:38.795Z,4.90
2023-03-01T14:57:05.286Z,3.63
2023-03-01T14:59:33.976Z,3.93
2023-03-01T15:02:01.141Z,4.50
2023-03-01T15:04:28.645Z,4.53
2023-03-01T15:06:56.774Z,4.40
2023-03-01T15:09:23.446Z,4.03
2023-03-01T15:11:49.806Z,4.23
2023-03-01T15:14:29.989Z,4.83
2023-03-01T15:16:57.043Z,5.67
2023-03-01T15:19:24.846Z,4.30
2023-03-01T15:21:51.229Z,3.80
2023-03-01T15:24:21.486Z,4.67
2023-03-01T15:26:58.379Z,4.07
2023-03-01T15:29:30.912Z,4.67
2023-03-01T15:31:59.564Z,4.27
2023-03-01T15:34:27.151Z,3.37
2023-03-01T15:36:54.359Z,6.90
2023-03-01T15:39:40.367Z,5.00
2023-03-01T15:42:08.519Z,4.57
2023-03-01T15:44:43.371Z,3.83
2023-03-01T15:47:24.164Z,3.90
2023-03-01T15:49:55.184Z,3.40
2023-03-01T15:52:41.206Z,4.33
2023-03-01T15:57:33.878Z,3.97
2023-03-01T16:00:00.265Z,4.97
2023-03-01T16:02:26.824Z,4.30
2023-03-01T16:04:54.696Z,5.03
2023-03-01T16:07:21.280Z,5.40
2023-03-01T16:09:47.598Z,4.87
2023-03-01T16:12:15.252Z,5.37
2023-03-01T16:14:41.590Z,4.57
2023-03-01T16:17:10.996Z,4.50
2023-03-01T16:19:38.588Z,5.60
2023-03-01T16:22:05.231Z,5.43
2023-03-01T16:24:31.556Z,4.57
2023-03-01T16:26:57.904Z,4.97
2023-03-01T16:29:24.238Z,4.73
2023-03-01T16:31:50.660Z,5.07
2023-03-01T16:34:17.262Z,4.07
2023-03-01T16:36:43.767Z,4.53
2023-03-01T16:39:10.639Z,5.10
2023-03-01T16:41:36.997Z,4.57
2023-03-01T16:44:03.394Z,5.90
2023-03-01T16:46:30.029Z,5.03
2023-03-01T16:48:57.056Z,6.23
2023-03-01T16:51:24.416Z,5.77
2023-03-01T16:53:51.169Z,5.00
2023-03-01T16:56:18.139Z,6.37
2023-03-01T16:58:44.607Z,5.47
2023-03-01T17:01:13.085Z,6.67
2023-03-01T17:03:39.893Z,6.67
2023-03-01T17:06:07.532Z,5.60
2023-03-01T17:08:33.946Z,5.53
2023-03-01T17:11:04.731Z,5.63
2023-03-01T17:13:31.130Z,6.30
2023-03-01T17:15:57.607Z,5.73
2023-03-01T17:18:25.133Z,5.97
2023-03-01T17:20:51.637Z,5.93
2023-03-01T17:23:17.975Z,5.50
2023-03-01T17:25:45.511Z,6.97
2023-03-01T17:28:13.008Z,5.30
2023-03-01T17:30:41.984Z,5.37
2023-03-01T17:33:08.538Z,6.73
2023-03-01T17:35:37.272Z,5.90
2023-03-01T17:38:04.245Z,6.00
2023-03-01T17:40:30.709Z,5.73
2023-03-01T17:42:57.153Z,5.23
2023-03-01T17:45:23.462Z,5.63
2023-03-01T17:47:49.874Z,5.30
2023-03-01T17:50:16.388Z,4.87
2023-03-01T17:52:42.727Z,4.37
2023-03-01T17:55:09.793Z,5.33
2023-03-01T17:57:39.636Z,5.00
2023-03-01T18:00:07.951Z,3.80
2023-03-01T18:02:34.366Z,4.10
2023-03-01T18:05:00.708Z,3.67
2023-03-01T18:07:27.660Z,2.67
2023-03-01T18:09:54.123Z,3.07
2023-03-01T18:12:20.501Z,3.20
2023-03-01T18:14:48.369Z,3.97
2023-03-01T18:17:14.781Z,2.67
2023-03-01T18:19:41.323Z,2.80
2023-03-01T18:22:08.528Z,3.27
2023-03-01T18:24:35.603Z,2.73
2023-03-01T18:27:01.984Z,3.17
2023-03-01T18:29:28.465Z,2.67
2023-03-01T18:31:54.910Z,2.53
2023-03-01T18:34:21.333Z,2.53
2023-03-01T18:36:56.160Z,2.93
2023-03-01T18:39:32.710Z,2.88
2023-03-01T18:41:59.077Z,2.47
2023-03-01T18:44:25.596Z,4.60
2023-03-01T18:46:52.988Z,3.50
2023-03-01T18:49:19.407Z,4.10
2023-03-01T18:51:45.802Z,3.23
2023-03-01T18:54:12.664Z,2.97
2023-03-01T18:56:39.456Z,2.30
2023-03-01T18:59:06.248Z,2.53
2023-03-01T19:01:36.683Z,2.43
2023-03-01T19:04:04.698Z,3.33
2023-03-01T19:06:35.556Z,2.87
2023-03-01T19:09:03.010Z,2.77
2023-03-01T19:11:34.894Z,2.70
2023-03-01T19:14:01.838Z,3.40
2023-03-01T19:16:29.946Z,3.10
2023-03-01T19:18:59.354Z,2.30
2023-03-01T19:21:26.808Z,3.33
2023-03-01T19:23:53.968Z,2.37
2023-03-01T19:26:22.046Z,2.17
2023-03-01T19:28:51.432Z,3.43
2023-03-01T19:31:19.785Z,2.93
2023-03-01T19:33:46.656Z,3.63
2023-03-01T19:36:13.825Z,3.33
2023-03-01T19:38:40.874Z,2.80
2023-03-01T19:41:15.592Z,2.97
2023-03-01T19:43:42.935Z,3.65
2023-03-01T19:46:09.766Z,3.10
2023-03-01T19:48:36.163Z,3.53
2023-03-01T19:51:02.727Z,2.27
2023-03-01T19:53:29.057Z,3.37
2023-03-01T19:55:59.378Z,1.67
2023-03-01T19:58:26.847Z,3.07
2023-03-01T20:00:58.709Z,2.90
2023-03-01T20:03:26.148Z,2.17
2023-03-01T20:05:52.962Z,2.33
2023-03-01T20:08:19.643Z,2.47
2023-03-01T20:10:45.979Z,2.60
2023-03-01T20:13:12.436Z,2.77
2023-03-01T20:15:40.997Z,3.17
2023-03-01T20:18:07.427Z,2.83
2023-03-01T20:20:33.872Z,2.47
2023-03-01T20:23:00.460Z,2.53
2023-03-01T20:25:26.876Z,2.77
2023-03-01T20:27:53.578Z,2.13
2023-03-01T20:30:19.987Z,2.63
2023-03-01T20:32:46.412Z,2.50
2023-03-01T20:35:13.078Z,2.37
2023-03-01T20:37:39.473Z,2.53
2023-03-01T20:40:06.390Z,1.90
2023-03-01T20:42:32.781Z,2.70
2023-03-01T20:45:01.681Z,2.17
2023-03-01T20:47:28.316Z,2.60
2023-03-01T20:49:55.785Z,1.83
2023-03-01T20:52:24.815Z,2.77
2023-03-01T20:54:51.396Z,2.47
2023-03-01T20:57:17.781Z,1.73
2023-03-01T20:59:44.569Z,2.17
2023-03-01T21:02:14.666Z,2.77
2023-03-01T21:04:42.228Z,2.07
2023-03-01T21:07:08.665Z,2.33
2023-03-01T21:09:35.464Z,3.00
2023-03-01T21:12:02.145Z,2.90
2023-03-01T21:14:29.091Z,3.30
2023-03-01T21:16:55.520Z,2.23
2023-03-01T21:19:23.539Z,2.80
2023-03-01T21:21:51.097Z,3.27
2023-03-01T21:24:17.726Z,2.50
2023-03-01T21:26:44.920Z,2.30
2023-03-01T21:29:11.510Z,2.00
2023-03-01T21:31:38.230Z,2.43
2023-03-01T21:34:05.778Z,2.00
2023-03-01T21:36:32.868Z,2.27
2023-03-01T21:39:01.681Z,2.50
2023-03-01T21:41:32.600Z,2.00
2023-03-01T21:44:05.672Z,2.00
2023-03-01T21:46:35.426Z,2.63
2023-03-01T21:49:02.899Z,2.50
2023-03-01T21:51:30.584Z,3.07
2023-03-01T21:54:00.896Z,2.40
2023-03-01T21:56:29.651Z,2.53
2023-03-01T21:59:00.134Z,2.50
2023-03-01T22:01:27.603Z,2.07
2023-03-01T22:03:54.869Z,2.83
2023-03-01T22:06:26.369Z,2.50
2023-03-01T22:08:57.977Z,2.80
2023-03-01T22:11:26.163Z,2.20
2023-03-01T22:14:02.491Z,2.57
2023-03-01T22:16:31.033Z,2.50
2023-03-01T22:18:58.102Z,2.10
2023-03-01T22:21:25.191Z,2.00
2023-03-01T22:23:52.433Z,3.67
2023-03-01T22:26:26.846Z,3.40
2023-03-01T22:28:54.459Z,2.50
2023-03-01T22:31:21.400Z,2.40
2023-03-01T22:33:48.110Z,1.63
2023-03-01T22:36:14.565Z,2.57
2023-03-01T22:38:41.925Z,1.70
2023-03-01T22:41:08.869Z,1.50
2023-03-01T22:43:35.350Z,1.93
2023-03-01T22:46:10.971Z,1.53
2023-03-01T22:48:37.440Z,2.10
2023-03-01T22:51:04.048Z,2.63
2023-03-01T22:53:30.417Z,1.67
2023-03-01T22:55:56.824Z,2.07
2023-03-01T22:58:23.234Z,1.57
2023-03-01T23:00:49.630Z,1.73
2023-03-01T23:03:18.682Z,2.30
2023-03-01T23:05:45.160Z,2.70
2023-03-01T23:08:12.113Z,1.90
2023-03-01T23:10:41.761Z,2.17
2023-03-01T23:13:08.292Z,1.60
2023-03-01T23:15:34.854Z,2.00
2023-03-01T23:18:01.281Z,2.33
2023-03-01T23:20:28.200Z,2.10
2023-03-01T23:23:01.612Z,2.67
2023-03-01T23:25:28.446Z,2.00
2023-03-01T23:27:55.637Z,1.97
2023-03-01T23:30:24.708Z,2.73
2023-03-01T23:32:53.342Z,3.67
2023-03-01T23:35:19.777Z,3.50
2023-03-01T23:37:46.920Z,2.40
2023-03-01T23:40:16.026Z,3.73
2023-03-01T23:42:42.476Z,2.03
2023-03-01T23:45:09.287Z,1.77
2023-03-01T23:47:35.881Z,1.80
2023-03-01T23:50:04.613Z,3.13
2023-03-01T23:52:36.053Z,2.10
2023-03-01T23:55:02.684Z,1.80
2023-03-01T23:57:29.259Z,1.70
2023-03-01T23:59:55.729Z,2.63
